SAS714 ENTC-EFOU
Flight info
| Callsign | SAS714 |
|---|---|
| Flight time | 0h 53m |
| Altitude | 35000 |
| Route | MOKAX DCT BURJA |
| Aircraft | B738/M-SDE2E3FGHIRWXY/LB1 |
Departure
| Time | 2026-05-09 03:18 |
|---|---|
| Airport | Tromsø Airport (ENTC) |
Arrival
| Time | 2026-05-09 04:11 |
|---|---|
| Airport | Oulu Airport (EFOU) |
| Time | Latitude | Longitude | Altitude | Speed | Heading |
|---|---|---|---|---|---|
| 2026-05-09 02:58 | 69.67930 | 18.90896 | 33 ft | 0 kts | 283° |
| 2026-05-09 03:10 | 69.67929 | 18.90908 | 33 ft | 3 kts | 283° |
| 2026-05-09 03:10 | 69.67923 | 18.90983 | 31 ft | 4 kts | 283° |
| 2026-05-09 03:10 | 69.67917 | 18.91059 | 34 ft | 4 kts | 283° |
| 2026-05-09 03:10 | 69.67911 | 18.91128 | 34 ft | 2 kts | 283° |
| 2026-05-09 03:11 | 69.67910 | 18.91195 | 33 ft | 4 kts | 238° |
| 2026-05-09 03:11 | 69.67929 | 18.91234 | 33 ft | 4 kts | 194° |
| 2026-05-09 03:11 | 69.67939 | 18.91241 | 34 ft | 1 kts | 193° |
| 2026-05-09 03:11 | 69.67940 | 18.91241 | 34 ft | 0 kts | 193° |
| 2026-05-09 03:13 | 69.67938 | 18.91240 | 34 ft | 1 kts | 193° |
| 2026-05-09 03:13 | 69.67900 | 18.91215 | 34 ft | 9 kts | 193° |
| 2026-05-09 03:14 | 69.67824 | 18.91165 | 34 ft | 14 kts | 193° |
| 2026-05-09 03:14 | 69.67717 | 18.91093 | 34 ft | 16 kts | 193° |
| 2026-05-09 03:14 | 69.67633 | 18.91164 | 33 ft | 14 kts | 110° |
| 2026-05-09 03:14 | 69.67585 | 18.91378 | 39 ft | 13 kts | 166° |
| 2026-05-09 03:15 | 69.67494 | 18.91333 | 38 ft | 15 kts | 193° |
| 2026-05-09 03:15 | 69.67378 | 18.91254 | 36 ft | 19 kts | 195° |
| 2026-05-09 03:15 | 69.67261 | 18.91110 | 33 ft | 13 kts | 161° |
| 2026-05-09 03:15 | 69.67294 | 18.91202 | 32 ft | 8 kts | 359° |
| 2026-05-09 03:16 | 69.67311 | 18.91210 | 33 ft | 0 kts | 12° |
| 2026-05-09 03:17 | 69.67312 | 18.91211 | 33 ft | 2 kts | 12° |
| 2026-05-09 03:17 | 69.67486 | 18.91326 | 38 ft | 63 kts | 13° |
| 2026-05-09 03:17 | 69.68167 | 18.91778 | 30 ft | 135 kts | 14° |
| 2026-05-09 03:17 | 69.69217 | 18.92486 | 462 ft | 155 kts | 15° |
| 2026-05-09 03:18 | 69.70248 | 18.93180 | 1395 ft | 155 kts | 12° |
| 2026-05-09 03:18 | 69.71351 | 18.93892 | 2043 ft | 175 kts | 15° |
| 2026-05-09 03:18 | 69.72658 | 18.94742 | 2376 ft | 207 kts | 15° |
| 2026-05-09 03:18 | 69.74112 | 18.95671 | 2878 ft | 220 kts | 15° |
| 2026-05-09 03:19 | 69.75118 | 18.96307 | 3282 ft | 226 kts | 15° |
| 2026-05-09 03:19 | 69.77063 | 18.98709 | 4043 ft | 238 kts | 49° |
| 2026-05-09 03:19 | 69.77668 | 19.01337 | 4488 ft | 238 kts | 72° |
| 2026-05-09 03:19 | 69.77909 | 19.06066 | 5310 ft | 240 kts | 94° |
| 2026-05-09 03:20 | 69.77649 | 19.10867 | 6128 ft | 244 kts | 105° |
| 2026-05-09 03:20 | 69.77100 | 19.17276 | 7160 ft | 252 kts | 106° |
| 2026-05-09 03:20 | 69.76813 | 19.20613 | 7678 ft | 255 kts | 106° |
| 2026-05-09 03:20 | 69.76167 | 19.25332 | 8423 ft | 258 kts | 129° |
| 2026-05-09 03:21 | 69.74797 | 19.28588 | 9192 ft | 260 kts | 158° |
| 2026-05-09 03:21 | 69.72984 | 19.29454 | 9613 ft | 272 kts | 189° |
| 2026-05-09 03:21 | 69.71109 | 19.28388 | 10312 ft | 278 kts | 196° |
| 2026-05-09 03:21 | 69.69186 | 19.27014 | 10763 ft | 296 kts | 197° |
| 2026-05-09 03:22 | 69.67100 | 19.25494 | 10962 ft | 321 kts | 197° |
| 2026-05-09 03:22 | 69.64878 | 19.23913 | 11393 ft | 336 kts | 196° |
| 2026-05-09 03:22 | 69.62578 | 19.22328 | 12067 ft | 342 kts | 196° |
| 2026-05-09 03:22 | 69.60253 | 19.20750 | 12885 ft | 346 kts | 196° |
| 2026-05-09 03:23 | 69.57889 | 19.19167 | 13671 ft | 351 kts | 194° |
| 2026-05-09 03:23 | 69.55421 | 19.18947 | 14378 ft | 364 kts | 172° |
| 2026-05-09 03:23 | 69.53023 | 19.21469 | 15177 ft | 372 kts | 154° |
| 2026-05-09 03:23 | 69.50747 | 19.25046 | 15953 ft | 376 kts | 153° |
| 2026-05-09 03:24 | 69.48451 | 19.28764 | 16702 ft | 382 kts | 153° |
| 2026-05-09 03:24 | 69.46144 | 19.32511 | 17607 ft | 380 kts | 153° |
| 2026-05-09 03:24 | 69.43874 | 19.36175 | 18505 ft | 382 kts | 153° |
| 2026-05-09 03:24 | 69.41541 | 19.39897 | 19043 ft | 389 kts | 153° |
| 2026-05-09 03:25 | 69.39155 | 19.43668 | 19618 ft | 394 kts | 154° |
| 2026-05-09 03:25 | 69.36741 | 19.47458 | 20273 ft | 399 kts | 154° |
| 2026-05-09 03:25 | 69.34300 | 19.51271 | 20890 ft | 403 kts | 154° |
| 2026-05-09 03:25 | 69.31833 | 19.55116 | 21486 ft | 407 kts | 154° |
| 2026-05-09 03:26 | 69.29337 | 19.58992 | 22090 ft | 412 kts | 154° |
| 2026-05-09 03:26 | 69.26814 | 19.62901 | 22679 ft | 416 kts | 154° |
| 2026-05-09 03:26 | 69.24268 | 19.66835 | 23240 ft | 420 kts | 154° |
| 2026-05-09 03:26 | 69.21692 | 19.70805 | 23801 ft | 424 kts | 155° |
| 2026-05-09 03:27 | 69.19083 | 19.74815 | 24291 ft | 428 kts | 155° |
| 2026-05-09 03:27 | 69.16453 | 19.78847 | 24759 ft | 431 kts | 155° |
| 2026-05-09 03:27 | 69.13806 | 19.82897 | 25195 ft | 435 kts | 155° |
| 2026-05-09 03:27 | 69.11141 | 19.86963 | 25693 ft | 438 kts | 155° |
| 2026-05-09 03:28 | 69.08487 | 19.90996 | 26144 ft | 441 kts | 155° |
| 2026-05-09 03:28 | 69.05789 | 19.95135 | 26588 ft | 444 kts | 155° |
| 2026-05-09 03:28 | 69.03087 | 19.99427 | 27008 ft | 447 kts | 154° |
| 2026-05-09 03:28 | 69.00396 | 20.03772 | 27594 ft | 447 kts | 154° |
| 2026-05-09 03:29 | 68.97701 | 20.08137 | 28007 ft | 450 kts | 154° |
| 2026-05-09 03:29 | 68.94975 | 20.12536 | 28376 ft | 454 kts | 154° |
| 2026-05-09 03:29 | 68.92229 | 20.16943 | 28759 ft | 457 kts | 154° |
| 2026-05-09 03:29 | 68.89462 | 20.21359 | 29149 ft | 461 kts | 155° |
| 2026-05-09 03:30 | 68.86658 | 20.25811 | 29366 ft | 466 kts | 155° |
| 2026-05-09 03:30 | 68.83831 | 20.30282 | 29706 ft | 469 kts | 155° |
| 2026-05-09 03:30 | 68.80984 | 20.34770 | 30112 ft | 471 kts | 155° |
| 2026-05-09 03:30 | 68.78165 | 20.39202 | 30450 ft | 473 kts | 155° |
| 2026-05-09 03:31 | 68.75302 | 20.43688 | 30800 ft | 473 kts | 155° |
| 2026-05-09 03:31 | 68.72436 | 20.48167 | 31244 ft | 472 kts | 155° |
| 2026-05-09 03:31 | 68.69587 | 20.52609 | 31699 ft | 470 kts | 155° |
| 2026-05-09 03:31 | 68.66742 | 20.57029 | 32096 ft | 469 kts | 155° |
| 2026-05-09 03:32 | 68.63894 | 20.61438 | 32462 ft | 469 kts | 155° |
| 2026-05-09 03:32 | 68.61051 | 20.65827 | 32851 ft | 469 kts | 155° |
| 2026-05-09 03:32 | 68.58213 | 20.70193 | 33287 ft | 466 kts | 155° |
| 2026-05-09 03:32 | 68.55394 | 20.74523 | 33827 ft | 463 kts | 155° |
| 2026-05-09 03:33 | 68.52588 | 20.78817 | 34191 ft | 463 kts | 155° |
| 2026-05-09 03:33 | 68.49774 | 20.83108 | 34438 ft | 464 kts | 155° |
| 2026-05-09 03:33 | 68.46965 | 20.87374 | 34549 ft | 469 kts | 155° |
| 2026-05-09 03:33 | 68.44107 | 20.91703 | 34763 ft | 471 kts | 155° |
| 2026-05-09 03:34 | 68.41247 | 20.96030 | 35112 ft | 469 kts | 155° |
| 2026-05-09 03:34 | 68.38393 | 21.00336 | 35340 ft | 470 kts | 155° |
| 2026-05-09 03:34 | 68.32662 | 21.08940 | 35328 ft | 474 kts | 155° |
| 2026-05-09 03:35 | 68.26927 | 21.17509 | 35315 ft | 467 kts | 155° |
| 2026-05-09 03:35 | 68.21237 | 21.25958 | 35332 ft | 466 kts | 155° |
| 2026-05-09 03:36 | 68.15550 | 21.34348 | 35298 ft | 467 kts | 155° |
| 2026-05-09 03:36 | 68.09853 | 21.42706 | 35315 ft | 467 kts | 155° |
| 2026-05-09 03:37 | 68.04180 | 21.50980 | 35328 ft | 467 kts | 156° |
| 2026-05-09 03:37 | 67.98461 | 21.59276 | 35327 ft | 469 kts | 156° |
| 2026-05-09 03:38 | 67.92716 | 21.67564 | 35322 ft | 470 kts | 156° |
| 2026-05-09 03:38 | 67.86946 | 21.75840 | 35321 ft | 471 kts | 156° |
| 2026-05-09 03:39 | 67.81170 | 21.84078 | 35317 ft | 472 kts | 156° |
| 2026-05-09 03:39 | 67.75409 | 21.92250 | 35314 ft | 472 kts | 156° |
| 2026-05-09 03:40 | 67.69610 | 22.00429 | 35292 ft | 472 kts | 156° |
| 2026-05-09 03:40 | 67.63817 | 22.08554 | 35304 ft | 472 kts | 156° |
| 2026-05-09 03:41 | 67.58012 | 22.16648 | 35310 ft | 472 kts | 156° |
| 2026-05-09 03:41 | 67.52210 | 22.24695 | 35308 ft | 472 kts | 156° |
| 2026-05-09 03:42 | 67.46393 | 22.32717 | 35312 ft | 472 kts | 156° |
| 2026-05-09 03:42 | 67.40619 | 22.40634 | 35311 ft | 472 kts | 157° |
| 2026-05-09 03:43 | 67.34812 | 22.48554 | 35306 ft | 471 kts | 157° |
| 2026-05-09 03:43 | 67.28997 | 22.56440 | 35295 ft | 472 kts | 157° |
| 2026-05-09 03:44 | 67.23187 | 22.64279 | 35294 ft | 471 kts | 157° |
| 2026-05-09 03:44 | 67.17366 | 22.72087 | 35295 ft | 471 kts | 157° |
| 2026-05-09 03:45 | 67.11586 | 22.79798 | 35302 ft | 471 kts | 157° |
| 2026-05-09 03:45 | 67.05766 | 22.87520 | 35299 ft | 471 kts | 157° |
| 2026-05-09 03:46 | 66.99932 | 22.95219 | 35309 ft | 471 kts | 158° |
| 2026-05-09 03:46 | 66.94105 | 23.02868 | 35311 ft | 471 kts | 158° |
| 2026-05-09 03:47 | 66.88263 | 23.10493 | 35314 ft | 472 kts | 158° |
| 2026-05-09 03:47 | 66.82451 | 23.18040 | 35291 ft | 472 kts | 158° |
| 2026-05-09 03:48 | 66.76602 | 23.25594 | 35314 ft | 472 kts | 158° |
| 2026-05-09 03:48 | 66.70740 | 23.33125 | 35322 ft | 472 kts | 158° |
| 2026-05-09 03:49 | 66.67795 | 23.36891 | 35034 ft | 477 kts | 158° |
| 2026-05-09 03:49 | 66.64825 | 23.40676 | 34433 ft | 478 kts | 159° |
| 2026-05-09 03:49 | 66.61864 | 23.44446 | 33685 ft | 477 kts | 159° |
| 2026-05-09 03:49 | 66.58904 | 23.48204 | 32948 ft | 476 kts | 159° |
| 2026-05-09 03:50 | 66.55951 | 23.51944 | 32205 ft | 475 kts | 159° |
| 2026-05-09 03:50 | 66.52996 | 23.55675 | 31552 ft | 473 kts | 158° |
| 2026-05-09 03:50 | 66.50069 | 23.59364 | 31040 ft | 468 kts | 159° |
| 2026-05-09 03:50 | 66.47168 | 23.63012 | 30531 ft | 464 kts | 159° |
| 2026-05-09 03:51 | 66.44303 | 23.66603 | 29948 ft | 459 kts | 159° |
| 2026-05-09 03:51 | 66.41456 | 23.70161 | 29408 ft | 454 kts | 158° |
| 2026-05-09 03:51 | 66.38649 | 23.73660 | 28847 ft | 448 kts | 158° |
| 2026-05-09 03:51 | 66.35874 | 23.77112 | 28368 ft | 442 kts | 158° |
| 2026-05-09 03:52 | 66.33142 | 23.80499 | 27791 ft | 438 kts | 158° |
| 2026-05-09 03:52 | 66.30401 | 23.83882 | 27020 ft | 440 kts | 158° |
| 2026-05-09 03:52 | 66.27674 | 23.87243 | 26487 ft | 436 kts | 158° |
| 2026-05-09 03:52 | 66.24967 | 23.90574 | 25964 ft | 432 kts | 158° |
| 2026-05-09 03:53 | 66.22284 | 23.93868 | 25465 ft | 428 kts | 158° |
| 2026-05-09 03:53 | 66.19663 | 23.97078 | 24966 ft | 424 kts | 158° |
| 2026-05-09 03:53 | 66.17028 | 24.00300 | 24476 ft | 420 kts | 158° |
| 2026-05-09 03:53 | 66.14417 | 24.03482 | 23984 ft | 417 kts | 158° |
| 2026-05-09 03:54 | 66.11821 | 24.06639 | 23397 ft | 415 kts | 157° |
| 2026-05-09 03:54 | 66.09243 | 24.09768 | 22859 ft | 411 kts | 157° |
| 2026-05-09 03:54 | 66.06689 | 24.12860 | 22378 ft | 406 kts | 157° |
| 2026-05-09 03:54 | 66.04170 | 24.15905 | 21892 ft | 402 kts | 157° |
| 2026-05-09 03:55 | 66.01668 | 24.18921 | 21402 ft | 398 kts | 157° |
| 2026-05-09 03:55 | 65.99192 | 24.21899 | 20925 ft | 395 kts | 157° |
| 2026-05-09 03:55 | 65.96738 | 24.24845 | 20446 ft | 391 kts | 157° |
| 2026-05-09 03:55 | 65.94303 | 24.27760 | 19980 ft | 388 kts | 157° |
| 2026-05-09 03:56 | 65.91887 | 24.30647 | 19519 ft | 385 kts | 157° |
| 2026-05-09 03:56 | 65.89483 | 24.33514 | 19061 ft | 382 kts | 157° |
| 2026-05-09 03:56 | 65.87099 | 24.36350 | 18604 ft | 380 kts | 157° |
| 2026-05-09 03:56 | 65.84731 | 24.39163 | 18070 ft | 377 kts | 157° |
| 2026-05-09 03:57 | 65.82376 | 24.41954 | 17584 ft | 374 kts | 157° |
| 2026-05-09 03:57 | 65.80049 | 24.44707 | 17129 ft | 370 kts | 157° |
| 2026-05-09 03:57 | 65.77748 | 24.47425 | 16681 ft | 366 kts | 157° |
| 2026-05-09 03:57 | 65.75483 | 24.50094 | 16228 ft | 363 kts | 157° |
| 2026-05-09 03:58 | 65.73214 | 24.52761 | 15775 ft | 360 kts | 157° |
| 2026-05-09 03:58 | 65.70967 | 24.55398 | 15342 ft | 357 kts | 157° |
| 2026-05-09 03:58 | 65.68739 | 24.58008 | 14925 ft | 354 kts | 157° |
| 2026-05-09 03:58 | 65.66528 | 24.60593 | 14472 ft | 352 kts | 157° |
| 2026-05-09 03:59 | 65.64332 | 24.63154 | 14041 ft | 349 kts | 157° |
| 2026-05-09 03:59 | 65.62153 | 24.65691 | 13567 ft | 346 kts | 157° |
| 2026-05-09 03:59 | 65.59992 | 24.68204 | 13151 ft | 342 kts | 156° |
| 2026-05-09 03:59 | 65.57858 | 24.70681 | 12724 ft | 339 kts | 156° |
| 2026-05-09 04:00 | 65.55746 | 24.73127 | 12305 ft | 335 kts | 156° |
| 2026-05-09 04:00 | 65.53655 | 24.75545 | 11901 ft | 332 kts | 156° |
| 2026-05-09 04:00 | 65.51610 | 24.77905 | 11477 ft | 329 kts | 156° |
| 2026-05-09 04:00 | 65.49556 | 24.80272 | 11083 ft | 325 kts | 156° |
| 2026-05-09 04:01 | 65.47520 | 24.82615 | 10674 ft | 322 kts | 156° |
| 2026-05-09 04:01 | 65.45532 | 24.84899 | 10540 ft | 311 kts | 156° |
| 2026-05-09 04:01 | 65.43604 | 24.87114 | 10388 ft | 301 kts | 156° |
| 2026-05-09 04:01 | 65.41746 | 24.89242 | 10267 ft | 291 kts | 156° |
| 2026-05-09 04:02 | 65.39945 | 24.91300 | 10127 ft | 282 kts | 157° |
| 2026-05-09 04:02 | 65.38204 | 24.93286 | 10003 ft | 272 kts | 157° |
| 2026-05-09 04:02 | 65.36493 | 24.94959 | 9722 ft | 268 kts | 166° |
| 2026-05-09 04:02 | 65.34686 | 24.96016 | 9420 ft | 268 kts | 170° |
| 2026-05-09 04:03 | 65.32854 | 24.96941 | 9064 ft | 269 kts | 171° |
| 2026-05-09 04:03 | 65.31026 | 24.97860 | 8715 ft | 269 kts | 171° |
| 2026-05-09 04:03 | 65.29194 | 24.98803 | 8365 ft | 269 kts | 171° |
| 2026-05-09 04:03 | 65.27368 | 24.99761 | 8025 ft | 269 kts | 170° |
| 2026-05-09 04:04 | 65.25542 | 25.00734 | 7684 ft | 268 kts | 170° |
| 2026-05-09 04:04 | 65.23721 | 25.01713 | 7340 ft | 268 kts | 170° |
| 2026-05-09 04:04 | 65.21897 | 25.02699 | 6998 ft | 268 kts | 170° |
| 2026-05-09 04:04 | 65.20078 | 25.03684 | 6645 ft | 268 kts | 170° |
| 2026-05-09 04:05 | 65.18256 | 25.04672 | 6286 ft | 268 kts | 170° |
| 2026-05-09 04:05 | 65.16461 | 25.05646 | 5931 ft | 267 kts | 171° |
| 2026-05-09 04:05 | 65.14646 | 25.06630 | 5592 ft | 267 kts | 171° |
| 2026-05-09 04:05 | 65.12843 | 25.07605 | 5245 ft | 263 kts | 171° |
| 2026-05-09 04:06 | 65.11078 | 25.08561 | 4887 ft | 257 kts | 171° |
| 2026-05-09 04:06 | 65.09344 | 25.08977 | 4538 ft | 245 kts | 193° |
| 2026-05-09 04:06 | 65.07795 | 25.07635 | 4248 ft | 233 kts | 210° |
| 2026-05-09 04:06 | 65.06409 | 25.05739 | 3931 ft | 226 kts | 213° |
| 2026-05-09 04:07 | 65.05081 | 25.03837 | 3637 ft | 220 kts | 214° |
| 2026-05-09 04:07 | 65.03740 | 25.02197 | 3290 ft | 218 kts | 196° |
| 2026-05-09 04:07 | 65.02281 | 25.02658 | 3079 ft | 218 kts | 155° |
| 2026-05-09 04:07 | 65.01145 | 25.04966 | 2823 ft | 212 kts | 139° |
| 2026-05-09 04:08 | 65.00231 | 25.07628 | 2563 ft | 206 kts | 132° |
| 2026-05-09 04:08 | 64.99444 | 25.10365 | 2286 ft | 195 kts | 128° |
| 2026-05-09 04:08 | 64.98749 | 25.13005 | 2015 ft | 183 kts | 128° |
| 2026-05-09 04:08 | 64.98105 | 25.15503 | 1793 ft | 176 kts | 128° |
| 2026-05-09 04:09 | 64.97491 | 25.17897 | 1549 ft | 165 kts | 128° |
| 2026-05-09 04:09 | 64.96930 | 25.20093 | 1370 ft | 148 kts | 129° |
| 2026-05-09 04:09 | 64.96418 | 25.22093 | 1174 ft | 140 kts | 129° |
| 2026-05-09 04:09 | 64.95921 | 25.24029 | 989 ft | 135 kts | 129° |
| 2026-05-09 04:10 | 64.95449 | 25.25875 | 819 ft | 131 kts | 129° |
| 2026-05-09 04:10 | 64.94977 | 25.27718 | 669 ft | 132 kts | 127° |
| 2026-05-09 04:10 | 64.94516 | 25.29598 | 463 ft | 132 kts | 124° |
| 2026-05-09 04:10 | 64.94036 | 25.31414 | 276 ft | 129 kts | 123° |
| 2026-05-09 04:11 | 64.93578 | 25.33221 | 103 ft | 127 kts | 123° |
| 2026-05-09 04:11 | 64.93143 | 25.34934 | 52 ft | 112 kts | 123° |
| 2026-05-09 04:11 | 64.92807 | 25.36247 | 52 ft | 72 kts | 121° |
| 2026-05-09 04:11 | 64.92637 | 25.36919 | 44 ft | 33 kts | 121° |
| 2026-05-09 04:12 | 64.92530 | 25.37333 | 46 ft | 24 kts | 121° |
| 2026-05-09 04:12 | 64.92473 | 25.37629 | 45 ft | 18 kts | 97° |
| 2026-05-09 04:12 | 64.92494 | 25.37869 | 46 ft | 12 kts | 59° |
| 2026-05-09 04:12 | 64.92564 | 25.37923 | 49 ft | 12 kts | 330° |
| 2026-05-09 04:13 | 64.92610 | 25.37774 | 49 ft | 11 kts | 299° |
| 2026-05-09 04:13 | 64.92647 | 25.37625 | 49 ft | 10 kts | 301° |
| 2026-05-09 04:13 | 64.92684 | 25.37486 | 47 ft | 10 kts | 301° |
| 2026-05-09 04:13 | 64.92717 | 25.37357 | 48 ft | 8 kts | 301° |
| 2026-05-09 04:14 | 64.92750 | 25.37292 | 49 ft | 6 kts | 6° |
| 2026-05-09 04:14 | 64.92781 | 25.37330 | 47 ft | 3 kts | 31° |
| 2026-05-09 04:14 | 64.92792 | 25.37345 | 49 ft | 3 kts | 31° |
| 2026-05-09 04:14 | 64.92800 | 25.37355 | 49 ft | 0 kts | 30° |